Time;durP1;ratioP1;P1;durP2;ratioP2;P2;SDS_P1;SDS_P2;PMS_P1;PMS_P2;Temp;Humidity;BMP_temperature;BMP_pressure;BME280_temperature;BME280_humidity;BME280_pressure;Samples;Min_cycle;Max_cycle;Signal;HPM_P1;HPM_P2
2023/06/10 00:00:38;;;;;;;8.95;7.47;;;24.30;73.00;;;;;;6200580;28;80388;-61
2023/06/10 00:03:38;;;;;;;10.25;7.88;;;24.30;73.20;;;;;;6178788;28;81177;-57
2023/06/10 00:06:39;;;;;;;10.43;7.90;;;24.30;73.30;;;;;;6177210;28;82869;-59
2023/06/10 00:09:40;;;;;;;9.13;7.25;;;24.20;73.40;;;;;;6183776;28;80708;-59
2023/06/10 00:12:42;;;;;;;9.10;7.32;;;24.30;73.40;;;;;;6183572;28;80569;-60
2023/06/10 00:15:42;;;;;;;9.23;7.00;;;24.20;73.40;;;;;;6192499;28;80165;-60
2023/06/10 00:18:43;;;;;;;8.45;7.45;;;24.30;73.30;;;;;;6191327;28;81661;-60
2023/06/10 00:21:44;;;;;;;9.70;7.43;;;24.30;73.30;;;;;;6182519;28;80073;-61
2023/06/10 00:24:45;;;;;;;8.60;7.60;;;24.20;73.10;;;;;;6183925;28;80409;-59
2023/06/10 00:27:45;;;;;;;9.93;7.72;;;24.30;73.10;;;;;;6183219;28;79996;-60
2023/06/10 00:30:46;;;;;;;9.85;7.57;;;24.30;73.10;;;;;;6189395;28;83394;-60
2023/06/10 00:33:46;;;;;;;7.97;6.95;;;24.20;73.00;;;;;;6179923;28;83404;-60
2023/06/10 00:36:47;;;;;;;8.48;7.43;;;24.30;73.10;;;;;;6194933;28;80706;-58
2023/06/10 00:39:47;;;;;;;8.30;7.45;;;24.30;73.00;;;;;;6187055;28;80616;-59
2023/06/10 00:42:48;;;;;;;8.05;6.53;;;24.20;72.90;;;;;;6187664;28;81347;-58
2023/06/10 00:45:48;;;;;;;13.40;7.38;;;24.20;72.90;;;;;;6204528;28;81071;-61
2023/06/10 00:48:49;;;;;;;12.88;7.22;;;24.20;73.20;;;;;;6204282;28;80740;-61
2023/06/10 00:51:50;;;;;;;8.70;6.97;;;24.20;73.10;;;;;;6204228;28;81096;-62
2023/06/10 00:54:51;;;;;;;7.95;6.70;;;24.20;73.00;;;;;;6204683;28;81215;-61
2023/06/10 00:57:51;;;;;;;8.57;6.75;;;24.20;73.00;;;;;;6204471;28;80655;-59
2023/06/10 01:00:53;;;;;;;11.68;7.50;;;24.30;73.10;;;;;;6203512;28;80877;-60
2023/06/10 01:03:53;;;;;;;7.78;6.97;;;24.20;73.00;;;;;;6204998;28;80818;-59
2023/06/10 01:06:55;;;;;;;9.90;8.05;;;24.20;72.90;;;;;;6186618;28;81908;-58
2023/06/10 01:09:57;;;;;;;8.80;7.20;;;24.20;72.90;;;;;;6184755;28;83272;-59
2023/06/10 01:12:59;;;;;;;9.30;7.05;;;24.20;73.00;;;;;;6176807;28;83661;-60
2023/06/10 01:15:59;;;;;;;10.52;7.13;;;24.20;73.00;;;;;;6178741;28;80615;-60
2023/06/10 01:19:00;;;;;;;7.15;6.32;;;24.20;72.90;;;;;;6177145;28;81585;-59
2023/06/10 01:22:00;;;;;;;8.07;7.05;;;24.20;72.80;;;;;;6173153;28;82008;-59
2023/06/10 01:25:03;;;;;;;8.68;7.05;;;24.30;72.70;;;;;;6179187;28;80350;-58
2023/06/10 01:28:03;;;;;;;13.07;7.88;;;24.20;72.50;;;;;;6173005;28;80336;-59
2023/06/10 01:31:07;;;;;;;8.40;7.32;;;24.20;72.50;;;;;;6172868;28;83664;-59
2023/06/10 01:34:08;;;;;;;9.50;7.32;;;24.20;72.50;;;;;;6188180;28;81591;-59
2023/06/10 01:37:08;;;;;;;10.50;7.90;;;24.20;72.30;;;;;;6178761;28;80219;-59
2023/06/10 01:40:09;;;;;;;10.18;7.38;;;24.20;72.40;;;;;;6165238;28;82292;-59
2023/06/10 01:43:10;;;;;;;9.98;7.90;;;24.20;72.20;;;;;;6183994;28;81502;-60
2023/06/10 01:46:10;;;;;;;8.63;7.25;;;24.20;72.20;;;;;;6174759;28;82188;-60
2023/06/10 01:49:11;;;;;;;9.23;7.15;;;24.20;72.20;;;;;;6180697;28;83249;-60
2023/06/10 01:52:11;;;;;;;8.68;7.47;;;24.20;72.10;;;;;;6177025;28;83176;-59
2023/06/10 01:55:12;;;;;;;8.02;7.22;;;24.20;72.10;;;;;;6169509;28;82755;-58
2023/06/10 01:58:14;;;;;;;8.52;7.43;;;24.20;72.00;;;;;;6181972;28;83657;-62
2023/06/10 02:01:15;;;;;;;10.40;8.30;;;24.20;72.00;;;;;;6178355;28;80633;-62
2023/06/10 02:04:16;;;;;;;12.63;7.43;;;24.20;72.00;;;;;;6171958;28;81481;-63
2023/06/10 02:07:16;;;;;;;10.55;7.78;;;24.20;72.00;;;;;;6169780;28;83265;-62
2023/06/10 02:10:17;;;;;;;9.63;7.50;;;24.20;71.90;;;;;;6177048;28;82955;-63
2023/06/10 02:13:17;;;;;;;8.98;7.43;;;24.20;71.90;;;;;;6177374;28;82182;-62
2023/06/10 02:16:18;;;;;;;12.73;8.07;;;24.20;72.00;;;;;;6169349;28;83591;-63
2023/06/10 02:19:21;;;;;;;10.52;7.82;;;24.20;72.00;;;;;;6154471;28;80926;-62
2023/06/10 02:22:21;;;;;;;9.90;7.60;;;24.20;72.00;;;;;;6167484;28;80624;-62
2023/06/10 02:25:22;;;;;;;9.63;8.02;;;24.20;72.00;;;;;;6176728;28;80616;-62
2023/06/10 02:28:22;;;;;;;10.25;7.95;;;24.20;71.90;;;;;;6177834;28;81054;-61
2023/06/10 02:31:25;;;;;;;10.98;7.93;;;24.20;71.90;;;;;;6176953;28;80708;-60
2023/06/10 02:34:26;;;;;;;10.00;8.20;;;24.20;71.90;;;;;;6176274;28;82688;-62
2023/06/10 02:37:27;;;;;;;8.90;7.80;;;24.20;71.90;;;;;;6175869;28;83247;-62
2023/06/10 02:40:29;;;;;;;9.38;7.93;;;24.20;71.90;;;;;;6162473;28;83299;-63
2023/06/10 02:43:30;;;;;;;8.70;7.63;;;24.20;71.90;;;;;;6177522;28;83140;-64
2023/06/10 02:46:30;;;;;;;8.85;7.85;;;24.20;71.90;;;;;;6175615;28;83392;-62
2023/06/10 02:49:31;;;;;;;10.02;7.97;;;24.20;72.00;;;;;;6176711;28;82271;-62
2023/06/10 02:52:33;;;;;;;10.35;7.90;;;24.20;72.10;;;;;;6176763;28;83416;-63
2023/06/10 02:55:35;;;;;;;11.00;8.45;;;24.20;71.90;;;;;;6176692;28;83256;-62
2023/06/10 02:58:38;;;;;;;10.38;7.47;;;24.10;71.90;;;;;;6161118;28;80507;-63
2023/06/10 03:01:40;;;;;;;10.45;7.63;;;24.20;72.00;;;;;;6181799;28;81485;-64
2023/06/10 03:04:45;;;;;;;10.57;8.38;;;24.20;72.10;;;;;;6152384;28;82460;-62
2023/06/10 03:07:49;;;;;;;11.23;8.63;;;24.20;72.00;;;;;;6165547;28;82153;-62
2023/06/10 03:10:50;;;;;;;11.77;8.93;;;24.20;71.90;;;;;;6176330;28;83192;-60
2023/06/10 03:13:53;;;;;;;12.43;7.80;;;24.20;71.90;;;;;;6154216;28;81609;-60
2023/06/10 03:16:55;;;;;;;10.40;8.38;;;24.20;72.00;;;;;;6153977;28;83571;-58
2023/06/10 03:19:58;;;;;;;9.65;8.27;;;24.20;72.00;;;;;;6159192;28;83222;-60
2023/06/10 03:22:59;;;;;;;12.55;8.90;;;24.20;72.00;;;;;;6175524;28;83362;-60
2023/06/10 03:26:00;;;;;;;10.45;8.77;;;24.20;72.10;;;;;;6161309;28;81928;-60
2023/06/10 03:29:01;;;;;;;9.77;8.05;;;24.20;72.00;;;;;;6160325;28;82832;-60
2023/06/10 03:32:02;;;;;;;10.27;8.50;;;24.20;72.10;;;;;;6164361;28;82612;-59
2023/06/10 03:35:04;;;;;;;8.57;7.68;;;24.20;72.10;;;;;;6168394;28;85881;-59
2023/06/10 03:38:06;;;;;;;11.57;8.85;;;24.20;72.00;;;;;;6164651;28;82080;-59
2023/06/10 03:41:07;;;;;;;10.63;8.35;;;24.10;72.00;;;;;;6157149;28;82577;-58
2023/06/10 03:44:08;;;;;;;8.82;7.72;;;24.20;72.00;;;;;;6175272;28;82154;-60
2023/06/10 03:47:09;;;;;;;11.43;8.77;;;24.20;72.00;;;;;;6173776;28;80385;-62
2023/06/10 03:50:11;;;;;;;11.25;8.52;;;24.20;72.00;;;;;;6171937;28;83278;-62
2023/06/10 03:53:15;;;;;;;11.07;7.85;;;24.20;72.10;;;;;;6177913;28;83069;-62
2023/06/10 03:56:17;;;;;;;13.52;8.55;;;24.20;71.90;;;;;;6178171;28;82858;-63
2023/06/10 03:59:17;;;;;;;9.57;7.97;;;24.20;71.80;;;;;;6171849;28;82494;-62
2023/06/10 04:02:18;;;;;;;9.20;7.88;;;24.20;71.90;;;;;;6164332;28;80771;-63
2023/06/10 04:05:18;;;;;;;11.85;8.52;;;24.20;71.90;;;;;;6156744;28;82167;-64
2023/06/10 04:08:20;;;;;;;9.88;7.65;;;24.10;71.90;;;;;;6163276;28;80100;-61
2023/06/10 04:11:20;;;;;;;9.75;7.95;;;24.20;71.90;;;;;;6159480;28;80472;-62
2023/06/10 04:14:21;;;;;;;12.90;8.52;;;24.10;71.80;;;;;;6194895;28;80391;-63
2023/06/10 04:17:22;;;;;;;11.85;7.95;;;24.20;71.90;;;;;;6188302;28;83345;-61
2023/06/10 04:20:23;;;;;;;10.77;8.07;;;24.20;71.90;;;;;;6175025;28;82611;-63
2023/06/10 04:23:24;;;;;;;11.55;8.45;;;24.10;71.90;;;;;;6186756;28;83264;-62
2023/06/10 04:26:25;;;;;;;11.93;7.65;;;24.10;71.90;;;;;;6173814;28;81870;-62
2023/06/10 04:29:27;;;;;;;8.90;7.97;;;24.10;71.90;;;;;;6182079;28;83494;-62
2023/06/10 04:32:28;;;;;;;8.98;7.90;;;24.10;71.90;;;;;;6186987;28;82290;-63
2023/06/10 04:35:29;;;;;;;11.95;7.75;;;24.10;72.50;;;;;;6185069;28;80351;-63
2023/06/10 04:38:32;;;;;;;10.50;7.88;;;24.10;71.80;;;;;;6184166;28;83505;-62
2023/06/10 04:41:34;;;;;;;10.20;8.32;;;24.10;72.00;;;;;;6182611;28;80523;-63
2023/06/10 04:44:34;;;;;;;10.98;7.60;;;24.10;72.00;;;;;;6179298;28;83246;-63
2023/06/10 04:47:35;;;;;;;12.57;8.32;;;24.10;72.00;;;;;;6195192;28;83448;-61
2023/06/10 04:50:36;;;;;;;15.02;7.70;;;24.10;72.10;;;;;;6169409;28;82472;-63
2023/06/10 04:53:37;;;;;;;9.07;8.05;;;24.20;72.20;;;;;;6187597;28;82411;-61
2023/06/10 04:56:39;;;;;;;11.77;8.18;;;24.10;72.20;;;;;;6178199;28;80786;-63
2023/06/10 04:59:39;;;;;;;9.52;7.97;;;24.20;72.10;;;;;;6193201;28;82575;-64
2023/06/10 05:02:40;;;;;;;10.65;8.13;;;24.20;72.10;;;;;;6193533;28;80869;-63
2023/06/10 05:05:40;;;;;;;12.88;7.93;;;24.20;72.00;;;;;;6199181;28;80639;-64
2023/06/10 05:08:41;;;;;;;9.93;7.47;;;24.20;72.00;;;;;;6204367;28;81234;-62
2023/06/10 05:11:41;;;;;;;12.10;8.07;;;24.20;71.90;;;;;;6204610;28;80357;-63
2023/06/10 05:14:42;;;;;;;10.02;7.25;;;24.20;71.90;;;;;;6204419;28;83112;-62
2023/06/10 05:17:42;;;;;;;12.02;8.32;;;24.20;71.90;;;;;;6203096;28;81660;-63
2023/06/10 05:20:43;;;;;;;11.13;7.60;;;24.20;71.70;;;;;;6183079;28;80128;-63
2023/06/10 05:23:43;;;;;;;8.93;7.03;;;24.20;71.90;;;;;;6190732;28;80358;-65
2023/06/10 05:26:44;;;;;;;10.93;7.88;;;24.20;71.90;;;;;;6194590;28;80188;-63
2023/06/10 05:29:45;;;;;;;12.07;7.82;;;24.30;72.10;;;;;;6200648;28;80223;-63
2023/06/10 05:32:45;;;;;;;8.85;7.95;;;24.30;72.10;;;;;;6203628;28;80847;-63
2023/06/10 05:35:46;;;;;;;12.43;7.55;;;24.30;72.20;;;;;;6203154;28;81612;-63
2023/06/10 05:38:46;;;;;;;11.75;7.45;;;24.20;72.10;;;;;;6203793;28;81182;-63
2023/06/10 05:41:47;;;;;;;9.63;7.47;;;24.20;72.20;;;;;;6191415;28;81279;-63
2023/06/10 05:44:47;;;;;;;13.27;7.28;;;24.20;72.00;;;;;;6203563;28;80309;-62
2023/06/10 05:47:48;;;;;;;10.18;6.40;;;24.30;72.00;;;;;;6204088;28;80355;-63
2023/06/10 05:50:48;;;;;;;11.77;7.28;;;24.30;72.10;;;;;;6185189;28;81254;-63
2023/06/10 05:53:49;;;;;;;11.13;7.35;;;24.30;72.10;;;;;;6195709;28;80906;-63
2023/06/10 05:56:49;;;;;;;7.72;6.75;;;24.30;72.00;;;;;;6202996;28;81787;-61
2023/06/10 05:59:50;;;;;;;12.48;7.18;;;24.30;72.10;;;;;;6184882;28;83323;-61
2023/06/10 06:02:51;;;;;;;11.32;7.32;;;24.30;71.70;;;;;;6202225;28;89811;-64
2023/06/10 06:05:51;;;;;;;7.38;6.47;;;24.30;71.80;;;;;;6201526;28;81297;-62
2023/06/10 06:08:52;;;;;;;10.75;7.60;;;24.30;71.80;;;;;;6196888;28;81477;-65
2023/06/10 06:11:52;;;;;;;9.65;6.95;;;24.30;71.70;;;;;;6197490;28;80891;-68
2023/06/10 06:14:53;;;;;;;12.25;7.10;;;24.40;71.50;;;;;;6173709;28;82218;-66
2023/06/10 06:17:53;;;;;;;14.65;7.00;;;24.40;71.40;;;;;;6191889;28;80404;-66
2023/06/10 06:20:54;;;;;;;9.82;6.80;;;24.40;71.30;;;;;;6203245;28;80488;-68
2023/06/10 06:23:54;;;;;;;11.20;7.30;;;24.40;71.40;;;;;;6192934;28;80549;-67
2023/06/10 06:26:55;;;;;;;14.25;6.72;;;24.40;71.00;;;;;;6194071;28;82671;-66
2023/06/10 06:29:55;;;;;;;11.65;6.22;;;24.40;70.60;;;;;;6198212;28;81287;-71
2023/06/10 06:32:56;;;;;;;9.20;6.28;;;24.40;71.30;;;;;;6191317;28;83309;-71
2023/06/10 06:35:56;;;;;;;16.23;7.03;;;24.40;71.00;;;;;;6187875;28;80556;-71
2023/06/10 06:38:58;;;;;;;13.15;6.45;;;24.40;71.40;;;;;;6190872;28;81429;-72
2023/06/10 06:41:59;;;;;;;14.98;7.05;;;24.40;71.00;;;;;;6159479;28;82567;-71
2023/06/10 06:45:16;;;;;;;11.00;6.65;;;24.40;70.70;;;;;;6188636;28;83885;-71
2023/06/10 06:48:17;;;;;;;13.07;7.07;;;24.50;70.60;;;;;;6191359;28;80161;-69
2023/06/10 06:51:17;;;;;;;9.40;6.35;;;24.40;70.70;;;;;;6202549;28;80954;-63
2023/06/10 06:54:18;;;;;;;11.43;6.68;;;24.50;70.50;;;;;;6198150;28;80571;-62
2023/06/10 06:57:18;;;;;;;10.30;6.45;;;24.50;70.40;;;;;;6200304;28;80959;-62
2023/06/10 07:00:19;;;;;;;9.50;7.13;;;24.50;70.30;;;;;;6201018;28;80349;-61
2023/06/10 07:03:19;;;;;;;12.18;6.45;;;24.50;70.40;;;;;;6200737;28;80935;-62
2023/06/10 07:06:20;;;;;;;9.10;6.05;;;24.50;70.40;;;;;;6201131;28;82583;-63
2023/06/10 07:09:20;;;;;;;6.60;5.78;;;24.60;70.00;;;;;;6202774;28;80367;-66
2023/06/10 07:12:23;;;;;;;10.35;6.68;;;24.60;70.00;;;;;;6199927;28;80133;-67
2023/06/10 07:15:24;;;;;;;11.80;6.80;;;24.70;69.80;;;;;;6199457;28;80485;-65
2023/06/10 07:18:24;;;;;;;10.57;5.80;;;24.60;68.90;;;;;;6191493;28;81059;-67
2023/06/10 07:21:25;;;;;;;14.93;6.40;;;24.60;69.30;;;;;;6196512;28;81389;-70
2023/06/10 07:24:25;;;;;;;11.13;6.40;;;24.70;69.70;;;;;;6193561;28;80356;-72
2023/06/10 07:27:26;;;;;;;8.65;6.72;;;24.70;69.20;;;;;;6192566;28;80450;-64
2023/06/10 07:30:26;;;;;;;12.20;7.15;;;24.60;68.00;;;;;;6190579;28;80802;-64
2023/06/10 07:33:27;;;;;;;11.38;6.07;;;24.50;68.20;;;;;;6200860;28;81621;-63
2023/06/10 07:36:29;;;;;;;10.45;6.72;;;24.60;68.40;;;;;;6192277;28;80840;-62
2023/06/10 07:39:29;;;;;;;6.93;5.85;;;24.60;68.20;;;;;;6190228;28;80752;-65
2023/06/10 07:42:30;;;;;;;8.77;5.80;;;24.70;68.30;;;;;;6191785;28;81017;-65
2023/06/10 07:45:30;;;;;;;9.93;7.03;;;24.70;68.10;;;;;;6198930;28;82250;-65
2023/06/10 07:48:31;;;;;;;8.90;6.05;;;24.70;68.00;;;;;;6200678;28;81029;-66
2023/06/10 07:51:31;;;;;;;7.45;6.05;;;24.70;68.00;;;;;;6200920;28;80587;-66
2023/06/10 07:54:32;;;;;;;8.82;6.25;;;24.70;66.80;;;;;;6200748;28;80286;-66
2023/06/10 07:57:36;;;;;;;8.50;5.78;;;24.50;66.80;;;;;;6200438;28;80876;-65
2023/06/10 08:00:36;;;;;;;10.93;6.13;;;24.50;66.80;;;;;;6189183;28;82291;-68
2023/06/10 08:03:37;;;;;;;9.90;6.03;;;24.40;66.90;;;;;;6187150;28;80422;-61
2023/06/10 08:06:37;;;;;;;13.60;6.00;;;24.30;66.90;;;;;;6193319;28;81552;-63
2023/06/10 08:09:38;;;;;;;7.80;6.03;;;24.30;66.80;;;;;;6192787;28;80592;-65
2023/06/10 08:12:38;;;;;;;8.43;6.25;;;24.30;66.60;;;;;;6191641;28;80402;-64
2023/06/10 08:15:39;;;;;;;11.70;5.47;;;24.20;66.70;;;;;;6197157;28;80622;-66
2023/06/10 08:18:39;;;;;;;6.65;5.78;;;24.30;67.50;;;;;;6191969;28;80471;-66
2023/06/10 08:21:40;;;;;;;9.48;6.43;;;24.20;66.90;;;;;;6189523;28;81276;-66
2023/06/10 08:24:41;;;;;;;7.97;5.60;;;24.20;66.70;;;;;;6193844;28;80567;-67
2023/06/10 08:27:41;;;;;;;9.05;5.85;;;24.20;66.90;;;;;;6192882;28;82045;-68
2023/06/10 08:30:41;;;;;;;7.35;5.97;;;24.10;67.10;;;;;;6198428;28;80740;-65
2023/06/10 08:33:42;;;;;;;7.70;6.03;;;24.20;67.50;;;;;;6201850;28;81202;-68
2023/06/10 08:36:43;;;;;;;9.15;6.88;;;24.20;67.40;;;;;;6178869;28;82509;-66
2023/06/10 08:39:43;;;;;;;10.90;6.53;;;24.20;67.40;;;;;;6186654;28;80503;-62
2023/06/10 08:42:44;;;;;;;14.45;6.72;;;24.30;67.60;;;;;;6197589;28;80379;-62
2023/06/10 08:45:45;;;;;;;10.07;6.50;;;24.30;67.20;;;;;;6203923;28;81974;-61
2023/06/10 08:48:45;;;;;;;9.38;6.30;;;24.20;66.90;;;;;;6194981;28;80526;-73
2023/06/10 08:51:46;;;;;;;7.68;6.38;;;24.30;67.30;;;;;;6191652;28;80853;-62
2023/06/10 08:54:46;;;;;;;11.70;6.57;;;24.30;67.30;;;;;;6195802;28;80297;-63
2023/06/10 08:57:47;;;;;;;13.20;6.57;;;24.30;66.80;;;;;;6193316;28;82423;-60
2023/06/10 09:00:48;;;;;;;9.60;6.57;;;24.30;66.90;;;;;;6195838;28;80863;-59
2023/06/10 09:03:48;;;;;;;8.30;6.38;;;24.30;67.10;;;;;;6197903;28;83662;-59
2023/06/10 09:06:49;;;;;;;15.02;6.28;;;24.30;67.70;;;;;;6194802;28;81310;-59
2023/06/10 09:09:49;;;;;;;9.88;6.22;;;24.20;68.00;;;;;;6186061;28;80373;-61
2023/06/10 09:12:50;;;;;;;8.68;5.80;;;24.30;67.30;;;;;;6176686;28;82534;-61
2023/06/10 09:15:51;;;;;;;11.30;6.18;;;24.40;66.50;;;;;;6176829;28;83173;-58
2023/06/10 09:18:54;;;;;;;10.32;5.70;;;24.30;66.10;;;;;;6177118;28;81617;-61
2023/06/10 09:21:55;;;;;;;9.57;6.28;;;24.30;65.80;;;;;;6192829;28;82418;-62
2023/06/10 09:24:55;;;;;;;11.63;6.30;;;24.40;65.90;;;;;;6194152;28;80402;-62
2023/06/10 09:27:56;;;;;;;9.57;6.70;;;24.40;66.00;;;;;;6193102;28;80867;-61
2023/06/10 09:30:57;;;;;;;8.75;6.00;;;24.40;66.20;;;;;;6194058;28;84721;-65
2023/06/10 09:33:57;;;;;;;11.40;5.93;;;24.40;66.60;;;;;;6184188;28;81514;-68
2023/06/10 09:36:58;;;;;;;11.68;5.90;;;24.40;66.50;;;;;;6181836;28;80518;-67
2023/06/10 09:39:58;;;;;;;7.20;5.18;;;24.40;66.20;;;;;;6203647;28;80738;-65
2023/06/10 09:42:59;;;;;;;9.63;5.00;;;24.40;65.70;;;;;;6201959;28;81113;-71
2023/06/10 09:45:59;;;;;;;11.25;5.18;;;24.50;65.70;;;;;;6177752;28;81458;-64
2023/06/10 09:49:00;;;;;;;9.27;5.72;;;24.50;65.60;;;;;;6175707;28;83419;-60
2023/06/10 09:52:00;;;;;;;10.00;5.70;;;24.50;65.60;;;;;;6177424;28;80786;-60
2023/06/10 09:55:01;;;;;;;7.38;5.90;;;24.40;65.90;;;;;;6190029;28;81178;-64
2023/06/10 09:58:01;;;;;;;7.05;6.20;;;24.40;65.80;;;;;;6191800;28;81420;-64
2023/06/10 10:01:02;;;;;;;7.78;5.95;;;24.40;66.00;;;;;;6181813;28;80974;-62
2023/06/10 10:04:02;;;;;;;8.05;6.22;;;24.40;66.40;;;;;;6190245;28;80944;-63
2023/06/10 10:07:03;;;;;;;9.35;6.60;;;24.30;66.40;;;;;;6189753;28;80521;-62
2023/06/10 10:10:05;;;;;;;11.68;6.45;;;24.30;66.10;;;;;;6198224;28;80343;-61
2023/06/10 10:13:05;;;;;;;10.45;5.40;;;24.30;65.70;;;;;;6197191;28;80380;-60
2023/06/10 10:16:06;;;;;;;7.68;5.50;;;24.30;65.10;;;;;;6199843;28;80372;-64
2023/06/10 10:19:06;;;;;;;6.72;5.18;;;24.20;64.90;;;;;;6192282;28;80298;-67
2023/06/10 10:22:09;;;;;;;8.18;5.40;;;24.20;65.10;;;;;;6199188;28;80969;-62
2023/06/10 10:25:09;;;;;;;11.43;5.13;;;24.20;65.00;;;;;;6194159;28;80816;-64
2023/06/10 10:28:10;;;;;;;12.27;4.57;;;24.20;65.00;;;;;;6191040;28;82653;-65
2023/06/10 10:31:11;;;;;;;9.90;4.93;;;24.10;64.70;;;;;;6181192;28;81795;-66
2023/06/10 10:34:12;;;;;;;9.25;4.63;;;24.10;64.70;;;;;;6198481;28;82661;-66
2023/06/10 10:37:12;;;;;;;8.25;4.60;;;24.10;64.90;;;;;;6185358;28;80327;-63
2023/06/10 10:40:13;;;;;;;8.57;5.45;;;24.20;65.20;;;;;;6183617;28;80815;-63
2023/06/10 10:43:13;;;;;;;7.63;4.75;;;24.30;65.70;;;;;;6193393;28;80567;-64
2023/06/10 10:46:14;;;;;;;8.52;5.40;;;24.30;65.80;;;;;;6200340;28;81396;-63
2023/06/10 10:49:14;;;;;;;6.88;5.15;;;24.30;66.30;;;;;;6201616;28;80686;-60
2023/06/10 10:52:15;;;;;;;7.72;5.82;;;24.20;66.70;;;;;;6199605;28;80726;-58
2023/06/10 10:55:15;;;;;;;5.70;4.70;;;24.10;66.90;;;;;;6200642;28;81160;-54
2023/06/10 10:58:16;;;;;;;12.48;5.30;;;24.20;67.00;;;;;;6202481;28;80886;-59
2023/06/10 11:01:17;;;;;;;6.60;5.57;;;24.10;67.40;;;;;;6185053;28;80088;-59
2023/06/10 11:04:17;;;;;;;9.85;5.72;;;24.10;67.70;;;;;;6174195;28;82714;-58
2023/06/10 11:07:20;;;;;;;10.98;5.68;;;24.20;68.20;;;;;;6193253;28;80756;-60
2023/06/10 11:10:20;;;;;;;9.45;5.25;;;24.20;68.10;;;;;;6197281;28;80479;-60
2023/06/10 11:13:21;;;;;;;10.95;5.80;;;24.20;68.40;;;;;;6192829;28;83065;-59
2023/06/10 11:16:21;;;;;;;8.82;5.55;;;24.20;68.70;;;;;;6188014;28;80424;-61
2023/06/10 11:19:22;;;;;;;13.88;5.90;;;24.30;69.30;;;;;;6188659;28;80653;-62
2023/06/10 11:22:22;;;;;;;10.18;6.10;;;24.20;69.60;;;;;;6189643;28;80376;-61
2023/06/10 11:25:23;;;;;;;7.97;5.50;;;24.30;69.70;;;;;;6184086;28;80515;-60
2023/06/10 11:28:23;;;;;;;7.78;6.10;;;24.30;69.80;;;;;;6192838;28;80370;-60
2023/06/10 11:31:24;;;;;;;10.80;7.40;;;24.40;69.70;;;;;;6191377;28;83536;-60
2023/06/10 11:34:26;;;;;;;16.05;6.80;;;24.30;69.90;;;;;;6177783;28;81709;-63
2023/06/10 11:37:26;;;;;;;10.45;7.53;;;24.40;69.60;;;;;;6188624;28;82878;-63
2023/06/10 11:40:27;;;;;;;12.15;6.78;;;24.40;69.90;;;;;;6187066;28;80814;-64
2023/06/10 11:43:27;;;;;;;8.68;6.78;;;24.40;70.30;;;;;;6200425;28;80645;-63
2023/06/10 11:46:28;;;;;;;20.98;7.90;;;24.40;69.40;;;;;;6199561;28;82704;-63
2023/06/10 11:49:28;;;;;;;7.80;6.55;;;24.40;68.30;;;;;;6196039;28;80465;-63
2023/06/10 11:52:29;;;;;;;9.45;6.20;;;24.40;69.00;;;;;;6178848;28;80624;-67
2023/06/10 11:55:30;;;;;;;8.85;5.65;;;24.40;68.40;;;;;;6191063;28;80932;-65
2023/06/10 11:58:30;;;;;;;5.93;4.45;;;24.40;67.90;;;;;;6201756;28;80752;-69
2023/06/10 12:01:31;;;;;;;8.93;5.05;;;24.30;67.20;;;;;;6182281;28;83975;-65
2023/06/10 12:04:31;;;;;;;6.47;4.70;;;24.40;66.50;;;;;;6202368;28;80221;-65
2023/06/10 12:07:32;;;;;;;5.32;4.25;;;24.40;66.40;;;;;;6199904;28;80473;-63
2023/06/10 12:10:32;;;;;;;4.78;4.15;;;24.40;66.20;;;;;;6198937;28;81754;-64
2023/06/10 12:13:33;;;;;;;4.75;3.90;;;24.40;65.90;;;;;;6201072;28;80176;-66
2023/06/10 12:16:33;;;;;;;6.03;4.13;;;24.40;65.80;;;;;;6203849;28;80827;-64
2023/06/10 12:19:34;;;;;;;207.63;44.35;;;24.50;65.90;;;;;;6205431;28;80972;-68
2023/06/10 12:22:34;;;;;;;48.72;13.23;;;24.60;67.00;;;;;;6196246;28;82823;-65
2023/06/10 12:25:36;;;;;;;14.10;5.45;;;24.60;66.50;;;;;;6188780;28;85510;-69
2023/06/10 12:28:37;;;;;;;6.75;4.20;;;24.50;66.20;;;;;;6174437;28;84238;-71
2023/06/10 12:31:37;;;;;;;10.63;4.00;;;24.40;66.00;;;;;;6193629;28;81230;-66
2023/06/10 12:34:38;;;;;;;8.85;3.83;;;24.40;66.20;;;;;;6186092;28;80980;-67
2023/06/10 12:37:38;;;;;;;4.80;4.10;;;24.40;66.70;;;;;;6180295;28;80750;-66
2023/06/10 12:40:43;;;;;;;6.63;4.05;;;24.30;66.10;;;;;;6185679;28;80477;-69
2023/06/10 12:43:43;;;;;;;4.63;3.70;;;24.20;66.00;;;;;;6201283;28;81129;-66
2023/06/10 12:46:44;;;;;;;6.53;3.58;;;24.20;65.00;;;;;;6204484;28;80004;-70
2023/06/10 12:49:44;;;;;;;4.55;3.35;;;24.20;64.00;;;;;;6203708;28;80552;-73
2023/06/10 12:52:45;;;;;;;4.88;3.58;;;24.30;63.60;;;;;;6196632;28;80185;-62
2023/06/10 12:55:45;;;;;;;5.13;3.45;;;24.30;63.50;;;;;;6201103;28;80511;-75
2023/06/10 12:58:46;;;;;;;6.57;3.55;;;24.40;63.20;;;;;;6205822;28;80977;-74
2023/06/10 13:01:46;;;;;;;5.60;3.50;;;24.50;63.30;;;;;;6205071;28;80200;-73
2023/06/10 13:04:47;;;;;;;7.15;3.28;;;24.60;63.80;;;;;;6199563;28;80409;-71
2023/06/10 13:07:48;;;;;;;4.50;3.53;;;24.60;63.90;;;;;;6199272;28;80774;-71
2023/06/10 13:10:48;;;;;;;6.18;3.60;;;24.60;63.80;;;;;;6200537;28;81830;-72
2023/06/10 13:13:49;;;;;;;15.18;3.75;;;24.60;63.90;;;;;;6191861;28;81336;-76
2023/06/10 13:16:49;;;;;;;10.00;3.70;;;24.70;63.80;;;;;;6189651;28;80370;-75
2023/06/10 13:19:50;;;;;;;5.15;3.85;;;24.60;63.70;;;;;;6200793;28;80558;-67
2023/06/10 13:22:50;;;;;;;6.80;3.78;;;24.60;63.90;;;;;;6196008;28;80421;-70
2023/06/10 13:25:51;;;;;;;5.43;4.43;;;24.50;64.30;;;;;;6188726;28;80376;-71
2023/06/10 13:28:52;;;;;;;7.38;3.83;;;24.60;64.60;;;;;;6206038;28;80182;-73
2023/06/10 13:31:53;;;;;;;6.20;3.80;;;24.60;63.90;;;;;;6184878;28;82617;-73
2023/06/10 13:34:53;;;;;;;4.45;3.60;;;24.60;64.30;;;;;;6203050;28;81352;-75
2023/06/10 13:37:54;;;;;;;3.78;3.45;;;24.70;64.20;;;;;;6202768;28;80882;-71
2023/06/10 13:40:54;;;;;;;7.95;3.05;;;24.60;63.50;;;;;;6204584;28;82570;-74
2023/06/10 13:43:55;;;;;;;5.05;2.70;;;24.60;63.00;;;;;;6190532;28;80980;-66
2023/06/10 13:46:55;;;;;;;5.07;3.13;;;24.50;62.50;;;;;;6175968;28;81095;-66
2023/06/10 13:49:56;;;;;;;6.45;3.05;;;24.40;61.50;;;;;;6171757;28;81069;-68
2023/06/10 13:52:56;;;;;;;5.35;3.38;;;24.40;61.50;;;;;;6182476;28;81406;-59
2023/06/10 13:55:57;;;;;;;7.10;3.30;;;24.50;61.90;;;;;;6180799;28;81116;-59
2023/06/10 13:58:57;;;;;;;8.25;3.33;;;24.60;61.30;;;;;;6170730;28;83720;-58
2023/06/10 14:01:58;;;;;;;3.47;2.72;;;24.50;61.60;;;;;;6182234;28;82078;-59
2023/06/10 14:04:58;;;;;;;6.00;2.70;;;24.50;61.40;;;;;;6168955;28;81440;-59
2023/06/10 14:07:59;;;;;;;3.28;2.65;;;24.60;61.00;;;;;;6173234;28;81767;-58
2023/06/10 14:10:59;;;;;;;4.90;2.70;;;24.50;60.50;;;;;;6183287;28;81551;-59
2023/06/10 14:14:00;;;;;;;5.32;3.20;;;24.60;60.60;;;;;;6178299;28;81583;-57
2023/06/10 14:17:01;;;;;;;6.50;2.67;;;24.60;60.70;;;;;;6181185;28;81500;-58
2023/06/10 14:20:02;;;;;;;7.95;2.50;;;24.60;60.90;;;;;;6171653;28;82040;-59
2023/06/10 14:23:02;;;;;;;4.32;3.15;;;24.60;60.80;;;;;;6179172;28;82057;-56
2023/06/10 14:26:03;;;;;;;4.03;2.95;;;24.60;61.20;;;;;;6174888;28;81439;-58
2023/06/10 14:29:03;;;;;;;4.93;2.85;;;24.60;61.60;;;;;;6173219;28;82408;-57
2023/06/10 14:32:04;;;;;;;3.42;3.10;;;24.70;61.50;;;;;;6200223;28;81188;-56
2023/06/10 14:35:05;;;;;;;3.33;2.78;;;24.70;61.50;;;;;;6197792;28;80703;-59
2023/06/10 14:38:05;;;;;;;6.53;2.58;;;24.70;61.30;;;;;;6188379;28;85269;-54
2023/06/10 14:41:06;;;;;;;3.35;2.65;;;24.80;61.30;;;;;;6177674;28;80396;-55
2023/06/10 14:44:06;;;;;;;3.97;2.60;;;24.90;61.40;;;;;;6179562;28;80952;-58
2023/06/10 14:47:07;;;;;;;5.97;3.08;;;24.80;61.10;;;;;;6191264;28;80905;-59
2023/06/10 14:50:07;;;;;;;4.68;2.58;;;24.80;61.10;;;;;;6187165;28;80488;-61
2023/06/10 14:53:08;;;;;;;4.70;3.47;;;24.70;61.40;;;;;;6199684;28;80418;-59
2023/06/10 14:56:08;;;;;;;4.78;2.92;;;24.60;61.60;;;;;;6198880;28;83147;-61
2023/06/10 14:59:09;;;;;;;3.88;2.65;;;24.60;61.90;;;;;;6192003;28;80451;-58
2023/06/10 15:02:10;;;;;;;6.60;3.10;;;24.60;62.00;;;;;;6191228;28;80573;-59
2023/06/10 15:05:10;;;;;;;3.92;2.70;;;24.60;61.30;;;;;;6191276;28;80866;-60
2023/06/10 15:08:11;;;;;;;9.70;3.47;;;24.50;60.80;;;;;;6178273;28;82406;-60
2023/06/10 15:11:12;;;;;;;2.83;2.60;;;24.50;60.90;;;;;;6178419;28;80770;-60
2023/06/10 15:14:12;;;;;;;2.63;2.28;;;24.50;60.80;;;;;;6191361;28;80920;-60
2023/06/10 15:17:13;;;;;;;3.13;2.50;;;24.50;60.90;;;;;;6176469;28;82703;-60
2023/06/10 15:20:13;;;;;;;10.45;3.13;;;24.50;61.00;;;;;;6191475;28;82314;-60
2023/06/10 15:23:14;;;;;;;26.35;4.18;;;24.50;60.90;;;;;;6190107;28;81491;-60
2023/06/10 15:26:14;;;;;;;8.23;3.20;;;24.50;61.20;;;;;;6179661;28;82329;-59
2023/06/10 15:29:15;;;;;;;3.92;3.15;;;24.50;61.10;;;;;;6181285;28;80690;-60
2023/06/10 15:32:16;;;;;;;4.55;3.17;;;24.50;61.20;;;;;;6198118;28;80324;-59
2023/06/10 15:35:16;;;;;;;4.03;2.60;;;24.60;61.40;;;;;;6183151;28;84952;-60